createdAt,value
2018-11-21T00:05:04.219Z,15.93
2018-11-21T00:10:21.239Z,16.10
2018-11-21T00:15:38.244Z,15.97
2018-11-21T00:20:43.342Z,14.77
2018-11-21T00:31:18.474Z,14.57
2018-11-21T00:36:35.335Z,14.40
2018-11-21T00:41:40.614Z,15.67
2018-11-21T00:46:45.656Z,14.27
2018-11-21T00:52:02.148Z,14.37
2018-11-21T00:57:19.972Z,16.30
2018-11-21T01:02:25.317Z,14.40
2018-11-21T01:07:30.357Z,14.13
2018-11-21T01:18:22.651Z,14.70
2018-11-21T01:23:27.690Z,15.10
2018-11-21T01:28:51.755Z,15.37
2018-11-21T01:34:08.685Z,14.77
2018-11-21T01:39:13.726Z,15.10
2018-11-21T01:44:18.843Z,14.07
2018-11-21T01:49:23.897Z,14.67
2018-11-21T01:54:28.925Z,14.63
2018-11-21T01:59:45.973Z,15.30
2018-11-21T02:05:02.279Z,14.20
2018-11-21T02:10:19.249Z,15.97
2018-11-21T02:15:36.289Z,15.57
2018-11-21T02:20:53.199Z,15.23
2018-11-21T02:25:58.245Z,16.93
2018-11-21T02:31:03.296Z,16.33
2018-11-21T02:36:08.308Z,15.73
2018-11-21T02:41:13.656Z,16.23
2018-11-21T02:51:54.613Z,16.80
2018-11-21T02:57:11.668Z,16.03
2018-11-21T03:02:28.411Z,15.87
2018-11-21T03:07:52.552Z,16.40
2018-11-21T03:13:08.963Z,16.80
2018-11-21T03:18:25.565Z,16.30
2018-11-21T03:23:30.618Z,17.40
2018-11-21T03:28:55.056Z,16.47
2018-11-21T03:34:12.231Z,16.60
2018-11-21T03:39:28.501Z,17.47
2018-11-21T03:44:45.172Z,17.73
2018-11-21T03:49:50.228Z,16.43
2018-11-21T03:55:14.313Z,15.97
2018-11-21T04:00:19.361Z,16.97
2018-11-21T04:05:24.416Z,16.73
2018-11-21T04:10:41.043Z,16.47
2018-11-21T04:15:57.310Z,16.07
2018-11-21T04:21:13.429Z,16.57
2018-11-21T04:26:18.910Z,16.43
2018-11-21T04:31:23.985Z,16.30
2018-11-21T04:36:48.416Z,16.60
2018-11-21T04:41:53.369Z,16.37
2018-11-21T04:47:17.467Z,16.60
2018-11-21T04:52:22.549Z,15.73
2018-11-21T04:57:46.647Z,16.13
2018-11-21T05:03:03.016Z,16.57
2018-11-21T05:08:07.995Z,16.23
2018-11-21T05:13:13.113Z,15.87
2018-11-21T05:18:18.256Z,15.87
2018-11-21T05:23:23.369Z,16.13
2018-11-21T05:28:47.733Z,16.00
2018-11-21T05:34:04.091Z,15.77
2018-11-21T05:39:11.485Z,16.30
2018-11-21T05:44:16.538Z,15.93
2018-11-21T05:49:21.602Z,15.97
2018-11-21T05:54:38.795Z,16.23
2018-11-21T05:59:55.089Z,16.17
2018-11-21T06:05:12.312Z,16.20
2018-11-21T06:10:17.343Z,16.40
2018-11-21T06:15:41.448Z,16.27
2018-11-21T06:20:57.622Z,16.70
2018-11-21T06:26:14.227Z,16.00
2018-11-21T06:31:30.636Z,17.20
2018-11-21T06:36:47.074Z,16.73
2018-11-21T06:42:03.612Z,16.13
2018-11-21T06:47:19.926Z,16.20
2018-11-21T06:52:24.983Z,15.87
2018-11-21T06:57:30.025Z,16.80
2018-11-21T07:02:46.940Z,15.77
2018-11-21T07:08:03.293Z,16.77
2018-11-21T07:13:19.889Z,16.10
2018-11-21T07:18:24.947Z,15.53
2018-11-21T07:24:15.331Z,16.77
2018-11-21T07:29:19.125Z,16.50
2018-11-21T07:34:22.927Z,16.57
2018-11-21T07:39:26.737Z,16.53
2018-11-21T07:44:50.501Z,15.50
2018-11-21T07:50:06.931Z,16.90
2018-11-21T07:55:11.466Z,16.70
2018-11-21T08:00:56.185Z,15.90
2018-11-21T08:06:21.257Z,15.80
2018-11-21T08:11:44.260Z,16.17
2018-11-21T08:17:07.351Z,15.73
2018-11-21T08:22:42.992Z,16.67
2018-11-21T08:28:06.017Z,16.67
2018-11-21T08:33:09.861Z,16.47
2018-11-21T08:38:26.408Z,16.03
2018-11-21T08:43:42.830Z,16.70
2018-11-21T08:48:46.676Z,16.07
2018-11-21T08:54:09.951Z,15.97
2018-11-21T08:59:26.420Z,17.13
2018-11-21T09:04:43.561Z,16.97
2018-11-21T09:09:47.761Z,15.53
2018-11-21T09:14:51.574Z,16.37
2018-11-21T09:20:14.923Z,16.87
2018-11-21T09:25:31.420Z,16.43
2018-11-21T09:30:35.246Z,16.87
2018-11-21T09:35:39.098Z,16.20
2018-11-21T09:40:55.614Z,15.10
2018-11-21T09:45:59.477Z,14.93
2018-11-21T09:51:22.763Z,15.20
2018-11-21T09:56:39.606Z,16.10
2018-11-21T10:02:05.605Z,16.03
2018-11-21T10:07:21.825Z,15.00
2018-11-21T10:12:37.713Z,14.90
2018-11-21T10:17:41.581Z,15.17
2018-11-21T10:22:45.456Z,15.53
2018-11-21T10:27:49.296Z,16.20
2018-11-21T10:33:06.089Z,16.03
2018-11-21T10:38:22.673Z,16.10
2018-11-21T10:48:42.531Z,16.83
2018-11-21T10:53:46.406Z,16.90
2018-11-21T10:59:09.716Z,17.00
2018-11-21T11:04:38.331Z,16.80
2018-11-21T11:09:52.329Z,17.63
2018-11-21T11:15:24.303Z,17.67
2018-11-21T11:21:00.460Z,18.77
2018-11-21T11:26:36.703Z,18.53
2018-11-21T11:32:01.647Z,19.17
2018-11-21T11:37:37.394Z,17.20
2018-11-21T11:43:06.441Z,18.90
2018-11-21T11:48:40.539Z,19.80
2018-11-21T11:54:03.578Z,17.53
2018-11-21T11:59:51.323Z,17.30
2018-11-21T12:05:27.732Z,17.27
2018-11-21T12:10:56.791Z,18.83
2018-11-21T12:16:39.565Z,17.70
2018-11-21T12:22:02.591Z,17.83
2018-11-21T12:27:38.780Z,17.40
2018-11-21T12:33:01.800Z,17.07
2018-11-21T12:38:32.680Z,18.30
2018-11-21T12:49:49.337Z,19.03
2018-11-21T12:55:25.822Z,16.33
2018-11-21T13:01:01.908Z,16.53
2018-11-21T13:06:25.095Z,17.43
2018-11-21T13:12:07.612Z,16.33
2018-11-21T13:17:30.696Z,16.60
2018-11-21T13:22:55.449Z,17.17
2018-11-21T13:28:18.464Z,15.00
2018-11-21T13:33:51.172Z,15.03
2018-11-21T13:39:14.207Z,14.70
2018-11-21T13:44:40.470Z,15.83
2018-11-21T13:50:15.926Z,15.37
2018-11-21T13:55:32.444Z,14.93
2018-11-21T14:00:48.560Z,15.90
2018-11-21T14:06:05.089Z,13.53
2018-11-21T14:11:08.962Z,14.67
2018-11-21T14:16:12.844Z,14.60
2018-11-21T14:21:31.477Z,14.33
2018-11-21T14:26:48.200Z,15.23
2018-11-21T14:32:04.788Z,15.47
2018-11-21T14:37:08.598Z,15.30
2018-11-21T14:42:12.463Z,15.10
2018-11-21T14:47:28.427Z,14.83
2018-11-21T14:52:44.818Z,15.53
2018-11-21T14:57:48.683Z,14.50
2018-11-21T15:03:12.002Z,14.97
2018-11-21T15:08:28.723Z,15.03
2018-11-21T15:13:32.600Z,14.97
2018-11-21T15:18:36.434Z,14.23
2018-11-21T15:23:40.260Z,15.00
2018-11-21T15:28:44.107Z,13.87
2018-11-21T15:33:47.999Z,14.53
2018-11-21T15:38:51.825Z,14.93
2018-11-21T15:44:08.535Z,13.47
2018-11-21T15:49:25.140Z,14.93
2018-11-21T15:54:29.020Z,14.87
2018-11-21T15:59:32.859Z,14.63
2018-11-21T16:04:36.745Z,14.20
2018-11-21T16:09:40.844Z,15.60
2018-11-21T16:14:44.690Z,15.17
2018-11-21T16:20:00.939Z,14.70
2018-11-21T16:25:19.047Z,14.97
2018-11-21T16:30:35.156Z,14.83
2018-11-21T16:35:38.988Z,14.87
2018-11-21T16:40:42.859Z,15.93
2018-11-21T16:45:48.699Z,14.97
2018-11-21T16:51:12.014Z,13.30
2018-11-21T16:56:28.245Z,14.40
2018-11-21T17:01:32.048Z,13.83
2018-11-21T17:06:36.046Z,14.27
2018-11-21T17:11:39.873Z,14.63
2018-11-21T17:16:43.774Z,14.80
2018-11-21T17:22:00.146Z,14.87
2018-11-21T17:27:17.093Z,16.83
2018-11-21T17:32:33.275Z,15.67
2018-11-21T17:37:37.391Z,14.77
2018-11-21T17:42:41.224Z,15.43
2018-11-21T17:47:45.041Z,15.53
2018-11-21T17:53:09.121Z,16.73
2018-11-21T17:58:25.310Z,15.97
2018-11-21T18:03:41.418Z,15.43
2018-11-21T18:08:45.435Z,16.67
2018-11-21T18:13:49.293Z,16.10
2018-11-21T18:19:11.962Z,16.60
2018-11-21T18:24:28.753Z,16.77
2018-11-21T18:29:34.299Z,15.93
2018-11-21T18:34:38.353Z,16.33
2018-11-21T18:39:42.189Z,15.30
2018-11-21T18:44:46.035Z,15.67
2018-11-21T18:49:49.863Z,16.03
2018-11-21T18:55:14.677Z,16.00
2018-11-21T19:00:31.269Z,16.53
2018-11-21T19:05:35.294Z,15.80
2018-11-21T19:10:39.133Z,16.40
2018-11-21T19:15:43.011Z,16.17
2018-11-21T19:20:46.977Z,15.77
2018-11-21T19:26:10.339Z,17.23
2018-11-21T19:31:29.722Z,16.30
2018-11-21T19:36:42.969Z,17.37
2018-11-21T19:41:46.900Z,16.70
2018-11-21T19:46:51.106Z,16.13
2018-11-21T19:52:07.855Z,17.27
2018-11-21T19:57:24.579Z,16.63
2018-11-21T20:02:41.138Z,17.13
2018-11-21T20:07:58.004Z,16.50
2018-11-21T20:13:15.246Z,17.43
2018-11-21T20:18:19.362Z,17.70
2018-11-21T20:23:23.201Z,16.53
2018-11-21T20:28:46.805Z,17.17
2018-11-21T20:34:02.703Z,18.17
2018-11-21T20:39:10.804Z,17.13
2018-11-21T20:44:14.686Z,16.40
2018-11-21T20:49:18.605Z,17.63
2018-11-21T20:54:22.513Z,18.10
2018-11-21T20:59:39.175Z,18.13
2018-11-21T21:04:55.059Z,17.33
2018-11-21T21:10:17.458Z,17.73
2018-11-21T21:15:21.605Z,19.30
2018-11-21T21:20:44.931Z,19.00
2018-11-21T21:26:01.636Z,18.30
2018-11-21T21:31:18.083Z,18.43
2018-11-21T21:36:22.231Z,17.77
2018-11-21T21:41:38.661Z,18.60
2018-11-21T21:46:55.433Z,17.47
2018-11-21T21:52:12.243Z,18.00
2018-11-21T21:57:28.592Z,16.73
2018-11-21T22:02:44.959Z,17.63
2018-11-21T22:07:49.391Z,17.23
2018-11-21T22:12:53.580Z,17.20
2018-11-21T22:18:08.261Z,18.57
2018-11-21T22:23:25.560Z,17.97
2018-11-21T22:28:42.045Z,17.97
2018-11-21T22:33:45.872Z,17.27
2018-11-21T22:38:49.739Z,17.23
2018-11-21T22:44:06.337Z,18.13
2018-11-21T22:49:22.435Z,17.43
2018-11-21T22:54:38.973Z,18.00
2018-11-21T22:59:42.837Z,17.00
2018-11-21T23:04:46.681Z,17.13
2018-11-21T23:09:50.495Z,17.27
2018-11-21T23:15:13.847Z,16.97
2018-11-21T23:20:30.338Z,15.77
2018-11-21T23:25:46.264Z,17.50
2018-11-21T23:31:02.899Z,16.97
2018-11-21T23:36:07.024Z,17.03
2018-11-21T23:41:10.849Z,17.17
2018-11-21T23:46:14.972Z,17.07
2018-11-21T23:51:18.840Z,17.17
2018-11-21T23:56:22.668Z,17.07
